createdAt,value
2023-01-30T00:00:19.808Z,15.38
2023-01-30T00:00:57.378Z,15.02
2023-01-30T00:01:32.241Z,15.75
2023-01-30T00:02:04.384Z,15.77
2023-01-30T00:02:36.339Z,17.10
2023-01-30T00:03:08.566Z,15.25
2023-01-30T00:03:40.572Z,15.77
2023-01-30T00:04:15.417Z,15.27
2023-01-30T00:04:48.873Z,15.55
2023-01-30T00:05:20.909Z,15.30
2023-01-30T00:05:53.768Z,15.57
2023-01-30T00:06:26.092Z,15.60
2023-01-30T00:06:58.115Z,14.85
2023-01-30T00:07:30.086Z,14.18
2023-01-30T00:08:01.987Z,15.10
2023-01-30T00:08:33.947Z,15.80
2023-01-30T00:09:05.855Z,15.30
2023-01-30T00:09:37.908Z,14.95
2023-01-30T00:10:10.538Z,15.18
2023-01-30T00:10:42.491Z,14.93
2023-01-30T00:11:16.903Z,15.35
2023-01-30T00:11:48.802Z,14.43
2023-01-30T00:12:20.854Z,15.70
2023-01-30T00:12:52.833Z,15.27
2023-01-30T00:13:24.741Z,15.05
2023-01-30T00:13:56.917Z,15.13
2023-01-30T00:14:28.814Z,14.95
2023-01-30T00:15:00.734Z,15.65
2023-01-30T00:15:32.606Z,15.73
2023-01-30T00:16:05.272Z,15.43
2023-01-30T00:16:37.843Z,15.00
2023-01-30T00:17:09.771Z,15.27
2023-01-30T00:17:41.639Z,15.75
2023-01-30T00:18:13.514Z,14.18
2023-01-30T00:18:45.531Z,14.70
2023-01-30T00:19:17.442Z,15.60
2023-01-30T00:19:49.385Z,14.77
2023-01-30T00:20:21.510Z,14.50
2023-01-30T00:21:01.184Z,14.52
2023-01-30T00:21:33.122Z,13.52
2023-01-30T00:22:05.445Z,15.60
2023-01-30T00:22:37.371Z,14.75
2023-01-30T00:23:09.294Z,15.13
2023-01-30T00:23:41.894Z,14.90
2023-01-30T00:24:13.927Z,14.02
2023-01-30T00:24:45.932Z,15.95
2023-01-30T00:25:18.049Z,14.05
2023-01-30T00:25:50.224Z,13.75
2023-01-30T00:26:22.417Z,15.38
2023-01-30T00:26:54.305Z,14.27
2023-01-30T00:27:26.555Z,14.32
2023-01-30T00:28:02.094Z,15.20
2023-01-30T00:28:34.736Z,14.52
2023-01-30T00:29:06.757Z,14.85
2023-01-30T00:29:38.933Z,14.15
2023-01-30T00:30:11.391Z,14.30
2023-01-30T00:30:43.369Z,15.27
2023-01-30T00:31:15.389Z,15.48
2023-01-30T00:31:47.330Z,15.18
2023-01-30T00:32:19.294Z,14.68
2023-01-30T00:32:56.147Z,15.20
2023-01-30T00:33:29.693Z,14.68
2023-01-30T00:34:01.717Z,15.43
2023-01-30T00:34:34.806Z,14.93
2023-01-30T00:35:07.246Z,14.93
2023-01-30T00:35:47.054Z,15.10
2023-01-30T00:36:19.138Z,15.48
2023-01-30T00:37:43.047Z,15.32
2023-01-30T00:38:15.893Z,14.75
2023-01-30T00:38:47.783Z,15.55
2023-01-30T00:39:19.805Z,15.73
2023-01-30T00:39:51.787Z,16.25
2023-01-30T00:40:25.133Z,15.75
2023-01-30T00:40:57.041Z,16.10
2023-01-30T00:41:48.882Z,16.25
2023-01-30T00:42:39.492Z,15.90
2023-01-30T00:43:36.092Z,16.80
2023-01-30T00:44:26.991Z,18.65
2023-01-30T00:45:17.697Z,20.15
2023-01-30T00:46:10.944Z,18.55
2023-01-30T00:47:01.371Z,18.05
2023-01-30T00:47:33.312Z,17.40
2023-01-30T00:48:05.436Z,18.85
2023-01-30T00:48:37.372Z,19.08
2023-01-30T00:49:09.585Z,18.00
2023-01-30T00:49:42.371Z,18.08
2023-01-30T00:50:14.272Z,18.52
2023-01-30T00:50:48.590Z,17.98
2023-01-30T00:51:20.663Z,19.55
2023-01-30T00:51:52.581Z,18.83
2023-01-30T00:52:24.494Z,19.27
2023-01-30T00:52:56.418Z,18.33
2023-01-30T00:53:28.715Z,19.48
2023-01-30T00:54:00.636Z,18.62
2023-01-30T00:54:32.858Z,19.33
2023-01-30T00:55:05.106Z,18.35
2023-01-30T00:55:36.972Z,18.25
2023-01-30T00:56:08.987Z,17.87
2023-01-30T00:56:40.868Z,18.77
2023-01-30T00:57:12.739Z,18.98
2023-01-30T00:57:45.102Z,19.48
2023-01-30T00:58:17.290Z,18.90
2023-01-30T00:58:49.253Z,18.27
2023-01-30T00:59:21.129Z,18.70
2023-01-30T00:59:53.604Z,18.20
2023-01-30T01:00:25.516Z,18.37
2023-01-30T01:00:57.421Z,17.70
2023-01-30T01:01:29.548Z,19.05
2023-01-30T01:02:01.474Z,18.60
2023-01-30T01:02:33.438Z,18.67
2023-01-30T01:03:05.622Z,19.08
2023-01-30T01:03:37.526Z,18.42
2023-01-30T01:04:10.609Z,18.75
2023-01-30T01:04:45.377Z,19.23
2023-01-30T01:05:17.858Z,19.40
2023-01-30T01:05:49.936Z,18.48
2023-01-30T01:06:21.935Z,18.35
2023-01-30T01:06:53.971Z,18.25
2023-01-30T01:07:25.907Z,19.10
2023-01-30T01:07:57.826Z,18.85
2023-01-30T01:08:30.116Z,18.08
2023-01-30T01:09:02.181Z,18.98
2023-01-30T01:09:34.841Z,18.52
2023-01-30T01:10:07.263Z,19.95
2023-01-30T01:10:39.656Z,18.17
2023-01-30T01:11:24.197Z,18.65
2023-01-30T01:11:56.239Z,17.55
2023-01-30T01:12:28.204Z,18.50
2023-01-30T01:13:00.273Z,18.37
2023-01-30T01:13:32.196Z,18.30
2023-01-30T01:14:05.441Z,18.75
2023-01-30T01:14:37.352Z,18.55
2023-01-30T01:15:10.614Z,18.77
2023-01-30T01:15:43.148Z,18.27
2023-01-30T01:16:15.115Z,17.52
2023-01-30T01:16:47.030Z,17.65
2023-01-30T01:17:18.920Z,18.00
2023-01-30T01:17:50.843Z,17.98
2023-01-30T01:18:22.985Z,17.98
2023-01-30T01:18:55.271Z,17.90
2023-01-30T01:19:27.562Z,17.80
2023-01-30T01:19:59.599Z,18.60
2023-01-30T01:20:31.493Z,18.17
2023-01-30T01:21:03.884Z,18.75
2023-01-30T01:21:35.777Z,18.12
2023-01-30T01:22:10.183Z,16.67
2023-01-30T01:22:42.072Z,18.73
2023-01-30T01:23:14.025Z,17.77
2023-01-30T01:23:59.870Z,18.75
2023-01-30T01:24:31.937Z,17.70
2023-01-30T01:25:04.182Z,18.23
2023-01-30T01:25:36.100Z,18.98
2023-01-30T01:26:08.479Z,18.50
2023-01-30T01:26:41.707Z,18.25
2023-01-30T01:27:16.011Z,19.05
2023-01-30T01:27:48.446Z,17.95
2023-01-30T01:28:22.323Z,18.85
2023-01-30T01:28:56.178Z,18.40
2023-01-30T01:29:28.265Z,18.37
2023-01-30T01:30:03.091Z,18.02
2023-01-30T01:30:35.017Z,18.20
2023-01-30T01:31:11.894Z,18.10
2023-01-30T01:31:44.638Z,17.65
2023-01-30T01:32:16.900Z,17.60
2023-01-30T01:32:48.800Z,17.10
2023-01-30T01:33:20.832Z,17.27
2023-01-30T01:33:52.876Z,17.95
2023-01-30T01:34:24.770Z,17.02
2023-01-30T01:34:56.960Z,18.55
2023-01-30T01:35:29.037Z,18.62
2023-01-30T01:36:01.445Z,18.62
2023-01-30T01:36:53.959Z,18.60
2023-01-30T01:37:26.929Z,16.50
2023-01-30T01:37:59.022Z,18.17
2023-01-30T01:38:32.281Z,17.95
2023-01-30T01:39:04.840Z,18.17
2023-01-30T01:39:55.384Z,18.85
2023-01-30T01:40:45.874Z,17.35
2023-01-30T01:41:18.751Z,16.23
2023-01-30T01:41:50.716Z,17.00
2023-01-30T01:42:25.878Z,17.42
2023-01-30T01:42:58.104Z,16.90
2023-01-30T01:43:32.387Z,17.65
2023-01-30T01:44:17.246Z,18.50
2023-01-30T01:45:04.766Z,16.35
2023-01-30T01:45:36.691Z,16.95
2023-01-30T01:46:23.307Z,17.95
2023-01-30T01:46:58.943Z,17.00
2023-01-30T01:47:34.610Z,17.33
2023-01-30T01:48:15.879Z,17.70
2023-01-30T01:48:55.202Z,16.60
2023-01-30T01:49:33.991Z,16.83
2023-01-30T01:50:15.263Z,17.45
2023-01-30T01:50:57.745Z,17.15
2023-01-30T01:51:40.678Z,18.02
2023-01-30T01:52:15.922Z,17.15
2023-01-30T01:52:52.217Z,16.83
2023-01-30T01:53:42.047Z,17.00
2023-01-30T01:54:23.514Z,16.27
2023-01-30T01:55:02.629Z,16.25
2023-01-30T01:55:35.228Z,16.62
2023-01-30T01:56:08.294Z,16.70
2023-01-30T01:56:45.930Z,16.10
2023-01-30T01:57:54.137Z,16.58
2023-01-30T01:58:39.444Z,16.95
2023-01-30T01:59:30.806Z,16.67
2023-01-30T02:00:13.512Z,15.90
2023-01-30T02:00:46.099Z,16.20
2023-01-30T02:01:18.572Z,16.25
2023-01-30T02:01:56.079Z,16.62
2023-01-30T02:02:28.145Z,16.10
2023-01-30T02:03:07.878Z,16.90
2023-01-30T02:03:49.466Z,16.35
2023-01-30T02:04:41.555Z,17.40
2023-01-30T02:05:16.771Z,17.98
2023-01-30T02:05:53.047Z,17.80
2023-01-30T02:06:25.341Z,17.98
2023-01-30T02:06:57.676Z,18.02
2023-01-30T02:07:34.307Z,18.00
2023-01-30T02:08:10.359Z,18.02
2023-01-30T02:08:50.362Z,16.20
2023-01-30T02:09:23.776Z,16.55
2023-01-30T02:09:55.853Z,16.70
2023-01-30T02:10:35.435Z,17.10
2023-01-30T02:11:07.275Z,17.20
2023-01-30T02:11:48.020Z,16.15
2023-01-30T02:12:19.903Z,16.80
2023-01-30T02:12:52.064Z,17.35
2023-01-30T02:13:26.225Z,17.87
2023-01-30T02:14:02.354Z,17.67
2023-01-30T02:14:35.327Z,17.55
2023-01-30T02:15:07.862Z,17.40
2023-01-30T02:15:40.269Z,17.37
2023-01-30T02:16:12.484Z,17.83
2023-01-30T02:16:46.524Z,17.45
2023-01-30T02:17:19.507Z,18.15
2023-01-30T02:17:51.695Z,17.83
2023-01-30T02:18:23.798Z,18.83
2023-01-30T02:18:55.896Z,18.87
2023-01-30T02:20:06.434Z,18.05
2023-01-30T02:21:18.059Z,16.12
2023-01-30T02:22:04.334Z,17.05
2023-01-30T02:23:02.313Z,15.57
2023-01-30T02:24:01.966Z,15.93
2023-01-30T02:24:48.998Z,15.60
2023-01-30T02:25:36.028Z,16.08
2023-01-30T02:26:56.084Z,16.27
2023-01-30T02:28:05.024Z,15.25
2023-01-30T02:28:52.686Z,16.33
2023-01-30T02:29:42.337Z,15.63
2023-01-30T02:30:33.012Z,16.48
2023-01-30T02:31:45.783Z,15.73
2023-01-30T02:32:26.617Z,15.77
2023-01-30T02:34:09.372Z,15.38
2023-01-30T02:34:47.132Z,15.98
2023-01-30T02:35:24.943Z,16.40
2023-01-30T02:36:09.593Z,15.07
2023-01-30T02:36:59.716Z,15.90
2023-01-30T02:37:43.644Z,15.07
2023-01-30T02:38:38.301Z,15.32
2023-01-30T02:39:31.674Z,15.68
2023-01-30T02:40:27.910Z,15.10
2023-01-30T02:41:00.228Z,15.30
2023-01-30T02:41:37.816Z,15.55
2023-01-30T02:42:19.010Z,16.30
2023-01-30T02:43:04.755Z,16.62
2023-01-30T02:43:40.231Z,15.90
2023-01-30T02:44:24.077Z,16.05
2023-01-30T02:45:07.424Z,13.88
2023-01-30T02:45:53.624Z,13.25
2023-01-30T02:46:49.113Z,13.98
2023-01-30T02:47:47.293Z,13.23
2023-01-30T02:48:27.363Z,13.95
2023-01-30T02:49:14.393Z,13.23
2023-01-30T02:49:52.340Z,13.18
2023-01-30T02:50:29.475Z,12.48
2023-01-30T02:51:12.597Z,13.57
2023-01-30T02:51:47.425Z,12.32
2023-01-30T02:52:21.537Z,12.98
2023-01-30T02:52:54.616Z,13.45
2023-01-30T02:53:32.790Z,14.13
2023-01-30T02:54:10.388Z,13.75
2023-01-30T02:54:42.289Z,14.18
2023-01-30T02:55:22.934Z,13.10
2023-01-30T02:55:55.322Z,13.88
2023-01-30T02:56:27.761Z,12.63
2023-01-30T02:57:00.755Z,14.38
2023-01-30T02:57:32.951Z,14.52
2023-01-30T02:58:05.398Z,13.93
2023-01-30T02:58:47.684Z,14.07
2023-01-30T02:59:26.367Z,12.95
2023-01-30T03:00:02.739Z,14.15
2023-01-30T03:00:37.768Z,14.02
2023-01-30T03:01:48.454Z,13.35
2023-01-30T03:02:33.004Z,13.57
2023-01-30T03:03:11.100Z,13.10
2023-01-30T03:04:18.529Z,13.93
2023-01-30T03:05:19.336Z,13.10
2023-01-30T03:05:58.701Z,12.90
2023-01-30T03:06:40.636Z,12.85
2023-01-30T03:07:36.444Z,13.82
2023-01-30T03:08:24.935Z,13.23
2023-01-30T03:09:22.564Z,13.38
2023-01-30T03:10:01.821Z,12.82
2023-01-30T03:10:34.169Z,12.37
2023-01-30T03:11:09.561Z,12.93
2023-01-30T03:11:47.706Z,13.93
2023-01-30T03:12:42.756Z,13.25
2023-01-30T03:13:49.363Z,13.93
2023-01-30T03:14:29.364Z,13.00
2023-01-30T03:15:17.862Z,13.62
2023-01-30T03:15:57.502Z,11.65
2023-01-30T03:16:38.949Z,12.80
2023-01-30T03:17:12.800Z,12.90
2023-01-30T03:17:48.093Z,14.05
2023-01-30T03:18:21.607Z,14.27
2023-01-30T03:18:53.612Z,14.13
2023-01-30T03:19:28.833Z,14.85
2023-01-30T03:20:01.003Z,14.40
2023-01-30T03:20:40.555Z,13.52
2023-01-30T03:21:12.694Z,12.98
2023-01-30T03:21:45.544Z,13.50
2023-01-30T03:22:17.491Z,13.70
2023-01-30T03:22:49.404Z,14.68
2023-01-30T03:23:22.021Z,14.40
2023-01-30T03:23:54.014Z,15.15
2023-01-30T03:24:26.471Z,14.45
2023-01-30T03:24:58.376Z,13.93
2023-01-30T03:25:32.310Z,14.40
2023-01-30T03:26:06.250Z,15.23
2023-01-30T03:27:03.399Z,13.38
2023-01-30T03:27:37.198Z,13.05
2023-01-30T03:28:13.566Z,14.02
2023-01-30T03:28:49.802Z,12.70
2023-01-30T03:29:21.950Z,13.98
2023-01-30T03:29:54.982Z,13.88
2023-01-30T03:30:27.164Z,14.87
2023-01-30T03:31:01.117Z,13.40
2023-01-30T03:31:33.790Z,13.80
2023-01-30T03:32:06.134Z,14.43
2023-01-30T03:32:38.030Z,13.35
2023-01-30T03:33:10.468Z,14.20
2023-01-30T03:33:43.139Z,14.52
2023-01-30T03:34:15.662Z,13.60
2023-01-30T03:34:47.680Z,13.93
2023-01-30T03:35:19.967Z,15.43
2023-01-30T03:35:52.915Z,13.68
2023-01-30T03:36:24.834Z,14.38
2023-01-30T03:36:57.280Z,14.50
2023-01-30T03:37:29.698Z,14.18
2023-01-30T03:38:02.868Z,13.82
2023-01-30T03:38:36.102Z,14.27
2023-01-30T03:39:08.585Z,13.43
2023-01-30T03:39:40.791Z,13.62
2023-01-30T03:40:16.108Z,14.77
2023-01-30T03:40:49.523Z,13.50
2023-01-30T03:41:22.328Z,14.25
2023-01-30T03:41:54.573Z,14.23
2023-01-30T03:42:27.134Z,13.65
2023-01-30T03:42:59.410Z,13.60
2023-01-30T03:43:31.375Z,14.77
2023-01-30T03:44:03.512Z,15.48
2023-01-30T03:44:35.502Z,15.43
2023-01-30T03:45:08.670Z,15.05
2023-01-30T03:45:40.960Z,14.38
2023-01-30T03:46:13.066Z,15.25
2023-01-30T03:46:45.084Z,14.70
2023-01-30T03:47:17.034Z,14.73
2023-01-30T03:47:48.998Z,15.13
2023-01-30T03:48:21.054Z,15.40
2023-01-30T03:48:52.939Z,14.43
2023-01-30T03:49:24.949Z,15.25
2023-01-30T03:49:57.221Z,15.35
2023-01-30T03:50:30.145Z,14.60
2023-01-30T03:51:02.906Z,14.68
2023-01-30T03:51:35.016Z,14.68
2023-01-30T03:52:07.996Z,16.30
2023-01-30T03:52:40.238Z,14.02
2023-01-30T03:53:13.443Z,15.32
2023-01-30T03:53:45.789Z,15.18
2023-01-30T03:54:17.992Z,15.18
2023-01-30T03:54:50.151Z,14.30
2023-01-30T03:55:22.123Z,14.35
2023-01-30T03:55:54.517Z,15.52
2023-01-30T03:56:27.406Z,16.15
2023-01-30T03:56:59.384Z,15.27
2023-01-30T03:57:31.511Z,14.75
2023-01-30T03:58:04.662Z,15.80
2023-01-30T03:58:37.012Z,14.85
2023-01-30T03:59:13.273Z,14.90
2023-01-30T03:59:46.232Z,14.73
2023-01-30T04:00:18.997Z,14.63
2023-01-30T04:00:52.660Z,15.27
2023-01-30T04:01:24.824Z,17.20
2023-01-30T04:01:57.977Z,17.85
2023-01-30T04:02:30.557Z,16.05
2023-01-30T04:03:03.390Z,16.37
2023-01-30T04:03:36.936Z,15.63
2023-01-30T04:04:09.872Z,16.37
2023-01-30T04:04:42.270Z,16.23
2023-01-30T04:05:14.556Z,15.75
2023-01-30T04:05:48.963Z,13.88
2023-01-30T04:06:21.230Z,13.82
2023-01-30T04:06:54.137Z,15.48
2023-01-30T04:07:28.381Z,14.98
2023-01-30T04:08:00.760Z,12.88
2023-01-30T04:08:34.067Z,14.82
2023-01-30T04:09:06.129Z,14.73
2023-01-30T04:09:38.627Z,13.40
2023-01-30T04:10:11.141Z,14.65
2023-01-30T04:10:44.268Z,14.63
2023-01-30T04:11:16.226Z,14.40
2023-01-30T04:11:49.293Z,14.70
2023-01-30T04:12:21.601Z,14.40
2023-01-30T04:12:54.741Z,14.87
2023-01-30T04:13:26.976Z,14.35
2023-01-30T04:13:58.918Z,14.23
2023-01-30T04:14:34.078Z,14.38
2023-01-30T04:15:09.661Z,14.38
2023-01-30T04:15:44.268Z,14.10
2023-01-30T04:16:23.594Z,14.23
2023-01-30T04:16:59.177Z,15.18
2023-01-30T04:17:33.047Z,14.38
2023-01-30T04:18:05.816Z,14.75
2023-01-30T04:18:39.435Z,15.23
2023-01-30T04:19:11.961Z,15.10
2023-01-30T04:19:44.719Z,14.20
2023-01-30T04:20:17.858Z,15.27
2023-01-30T04:20:50.575Z,14.93
2023-01-30T04:21:23.354Z,14.50
2023-01-30T04:21:55.677Z,15.02
2023-01-30T04:22:27.956Z,16.02
2023-01-30T04:22:59.953Z,16.00
2023-01-30T04:23:32.133Z,15.65
2023-01-30T04:24:04.246Z,16.02
2023-01-30T04:24:36.323Z,14.50
2023-01-30T04:25:08.973Z,16.10
2023-01-30T04:25:41.683Z,17.33
2023-01-30T04:26:14.265Z,16.62
2023-01-30T04:26:46.663Z,15.82
2023-01-30T04:27:18.958Z,15.45
2023-01-30T04:27:52.201Z,15.38
2023-01-30T04:28:24.410Z,16.27
2023-01-30T04:28:57.464Z,17.50
2023-01-30T04:29:31.089Z,16.17
2023-01-30T04:30:04.647Z,16.52
2023-01-30T04:30:36.634Z,16.05
2023-01-30T04:31:12.045Z,17.05
2023-01-30T04:31:44.593Z,16.10
2023-01-30T04:32:17.173Z,15.63
2023-01-30T04:32:49.726Z,15.20
2023-01-30T04:33:22.180Z,17.02
2023-01-30T04:33:54.672Z,16.58
2023-01-30T04:34:26.884Z,15.65
2023-01-30T04:34:59.192Z,15.40
2023-01-30T04:35:31.313Z,16.75
2023-01-30T04:36:04.970Z,15.70
2023-01-30T04:36:37.113Z,15.80
2023-01-30T04:37:09.412Z,15.55
2023-01-30T04:37:42.907Z,16.05
2023-01-30T04:38:15.330Z,16.27
2023-01-30T04:38:47.882Z,15.77
2023-01-30T04:39:22.203Z,16.08
2023-01-30T04:39:54.275Z,15.48
2023-01-30T04:40:26.716Z,15.30
2023-01-30T04:41:01.044Z,16.00
2023-01-30T04:41:33.304Z,14.20
2023-01-30T04:42:05.649Z,15.68
2023-01-30T04:42:40.110Z,16.27
2023-01-30T04:43:15.040Z,15.55
2023-01-30T04:43:50.403Z,16.35
2023-01-30T04:44:23.443Z,14.85
2023-01-30T04:44:55.549Z,15.98
2023-01-30T04:45:29.396Z,15.80
2023-01-30T04:46:02.235Z,15.18
2023-01-30T04:46:34.733Z,16.25
2023-01-30T04:47:06.601Z,15.88
2023-01-30T04:47:38.599Z,14.82
2023-01-30T04:48:10.730Z,15.20
2023-01-30T04:48:43.121Z,15.65
2023-01-30T04:49:15.521Z,14.95
2023-01-30T04:49:48.802Z,15.65
2023-01-30T04:50:21.077Z,15.15
2023-01-30T04:50:56.287Z,15.57
2023-01-30T04:51:29.039Z,15.60
2023-01-30T04:52:02.303Z,16.58
2023-01-30T04:52:34.514Z,16.35
2023-01-30T04:53:06.811Z,15.52
2023-01-30T04:53:38.957Z,15.70
2023-01-30T04:54:13.485Z,16.00
2023-01-30T04:54:46.503Z,16.20
2023-01-30T04:55:19.070Z,15.63
2023-01-30T04:55:52.134Z,13.98
2023-01-30T04:56:24.067Z,15.65
2023-01-30T04:56:57.921Z,16.02
2023-01-30T04:57:29.962Z,15.88
2023-01-30T04:58:02.096Z,16.33
2023-01-30T04:58:34.068Z,14.70
2023-01-30T04:59:06.445Z,16.52
2023-01-30T04:59:38.910Z,14.87
2023-01-30T05:00:14.637Z,15.57
2023-01-30T05:00:48.581Z,14.80
2023-01-30T05:01:30.618Z,15.13
2023-01-30T05:02:03.537Z,14.93
2023-01-30T05:02:35.603Z,14.95
2023-01-30T05:03:07.812Z,14.80
2023-01-30T05:03:39.697Z,14.87
2023-01-30T05:04:11.873Z,16.10
2023-01-30T05:04:43.956Z,15.75
2023-01-30T05:05:16.572Z,15.82
2023-01-30T05:05:49.157Z,16.42
2023-01-30T05:06:23.149Z,15.30
2023-01-30T05:06:55.056Z,16.17
2023-01-30T05:07:27.579Z,16.50
2023-01-30T05:07:59.534Z,15.65
2023-01-30T05:08:31.412Z,17.95
2023-01-30T05:09:03.906Z,15.93
2023-01-30T05:09:36.643Z,16.67
2023-01-30T05:10:09.400Z,16.20
2023-01-30T05:10:42.123Z,16.45
2023-01-30T05:11:13.963Z,16.12
2023-01-30T05:11:45.902Z,15.65
2023-01-30T05:12:17.779Z,15.93
2023-01-30T05:12:49.686Z,15.35
2023-01-30T05:13:21.636Z,14.40
2023-01-30T05:13:53.969Z,15.15
2023-01-30T05:14:25.875Z,15.52
2023-01-30T05:14:57.783Z,15.25
2023-01-30T05:15:29.711Z,15.32
2023-01-30T05:16:01.962Z,14.45
2023-01-30T05:16:33.867Z,14.50
2023-01-30T05:17:05.785Z,14.75
2023-01-30T05:17:38.295Z,15.38
2023-01-30T05:18:10.178Z,15.82
2023-01-30T05:18:43.240Z,14.73
2023-01-30T05:19:15.132Z,15.15
2023-01-30T05:19:47.050Z,15.23
2023-01-30T05:20:19.058Z,15.05
2023-01-30T05:20:51.007Z,15.50
2023-01-30T05:21:26.261Z,14.05
2023-01-30T05:21:58.169Z,15.15
2023-01-30T05:22:30.065Z,16.25
2023-01-30T05:23:02.014Z,14.75
2023-01-30T05:23:34.289Z,16.20
2023-01-30T05:24:06.615Z,15.40
2023-01-30T05:24:38.616Z,15.07
2023-01-30T05:25:10.607Z,13.60
2023-01-30T05:25:42.614Z,15.73
2023-01-30T05:26:15.538Z,15.77
2023-01-30T05:26:47.756Z,15.55
2023-01-30T05:27:19.689Z,15.13
2023-01-30T05:27:51.587Z,16.15
2023-01-30T05:28:23.646Z,15.23
2023-01-30T05:28:57.550Z,15.60
2023-01-30T05:29:29.965Z,15.73
2023-01-30T05:30:02.054Z,15.75
2023-01-30T05:30:34.224Z,15.68
2023-01-30T05:31:08.847Z,15.93
2023-01-30T05:31:40.800Z,16.10
2023-01-30T05:32:15.212Z,15.40
2023-01-30T05:32:47.232Z,16.20
2023-01-30T05:33:19.302Z,16.50
2023-01-30T05:33:52.618Z,16.77
2023-01-30T05:34:24.974Z,16.70
2023-01-30T05:34:56.877Z,15.95
2023-01-30T05:35:29.586Z,17.12
2023-01-30T05:36:01.963Z,16.95
2023-01-30T05:36:33.867Z,16.92
2023-01-30T05:37:06.026Z,16.62
2023-01-30T05:37:38.236Z,16.35
2023-01-30T05:38:10.194Z,16.12
2023-01-30T05:38:45.999Z,16.65
2023-01-30T05:39:17.955Z,16.33
2023-01-30T05:39:50.090Z,17.10
2023-01-30T05:40:22.188Z,16.10
2023-01-30T05:41:07.997Z,15.77
2023-01-30T05:41:39.975Z,16.87
2023-01-30T05:42:11.871Z,16.87
2023-01-30T05:42:44.049Z,15.30
2023-01-30T05:43:15.938Z,14.52
2023-01-30T05:43:51.417Z,16.40
2023-01-30T05:44:23.760Z,14.85
2023-01-30T05:44:55.640Z,16.95
2023-01-30T05:45:27.680Z,16.20
2023-01-30T05:46:01.421Z,16.95
2023-01-30T05:46:33.470Z,17.42
2023-01-30T05:47:05.497Z,16.67
2023-01-30T05:47:37.452Z,16.83
2023-01-30T05:48:09.641Z,17.12
2023-01-30T05:48:41.576Z,16.65
2023-01-30T05:49:13.535Z,17.23
2023-01-30T05:49:45.444Z,16.60
2023-01-30T05:50:17.712Z,16.92
2023-01-30T05:50:53.984Z,17.10
2023-01-30T05:51:27.539Z,16.95
2023-01-30T05:51:59.521Z,16.87
2023-01-30T05:52:31.500Z,17.02
2023-01-30T05:53:03.363Z,17.17
2023-01-30T05:53:35.737Z,17.33
2023-01-30T05:54:07.700Z,17.12
2023-01-30T05:54:39.683Z,17.35
2023-01-30T05:55:11.593Z,18.67
2023-01-30T05:55:43.874Z,18.55
2023-01-30T05:56:16.359Z,18.50
2023-01-30T05:56:51.465Z,21.12
2023-01-30T05:57:23.483Z,30.90
2023-01-30T05:57:55.480Z,27.35
2023-01-30T05:58:28.219Z,23.02
2023-01-30T05:59:01.687Z,21.60
2023-01-30T05:59:33.800Z,22.05
2023-01-30T06:00:06.817Z,20.65
2023-01-30T06:00:44.727Z,25.00
2023-01-30T06:01:17.101Z,20.80
2023-01-30T06:01:49.253Z,18.77
2023-01-30T06:02:21.217Z,18.45
2023-01-30T06:02:53.227Z,18.12
2023-01-30T06:03:25.429Z,19.12
2023-01-30T06:03:59.007Z,18.12
2023-01-30T06:04:30.969Z,18.70
2023-01-30T06:05:03.059Z,18.37
2023-01-30T06:05:38.272Z,18.98
2023-01-30T06:06:11.586Z,17.55
2023-01-30T06:06:43.928Z,19.52
2023-01-30T06:07:15.866Z,18.35
2023-01-30T06:07:47.726Z,18.25
2023-01-30T06:08:19.670Z,19.73
2023-01-30T06:08:57.780Z,19.37
2023-01-30T06:09:29.701Z,17.75
2023-01-30T06:10:01.908Z,17.77
2023-01-30T06:10:35.044Z,19.75
2023-01-30T06:11:13.666Z,20.67
2023-01-30T06:11:45.940Z,18.48
2023-01-30T06:12:17.838Z,19.95
2023-01-30T06:12:49.726Z,19.45
2023-01-30T06:13:21.693Z,21.00
2023-01-30T06:13:53.759Z,19.87
2023-01-30T06:14:25.668Z,20.88
2023-01-30T06:14:57.767Z,19.10
2023-01-30T06:15:29.685Z,19.62
2023-01-30T06:16:01.874Z,18.92
2023-01-30T06:16:33.906Z,21.37
2023-01-30T06:17:06.225Z,19.77
2023-01-30T06:17:42.127Z,21.15
2023-01-30T06:18:14.103Z,20.37
2023-01-30T06:18:49.446Z,20.70
2023-01-30T06:19:21.446Z,19.12
2023-01-30T06:19:53.329Z,19.10
2023-01-30T06:20:25.213Z,17.55
2023-01-30T06:20:57.230Z,18.35
2023-01-30T06:21:29.128Z,17.02
2023-01-30T06:22:01.002Z,17.17
2023-01-30T06:22:33.625Z,18.33
2023-01-30T06:23:05.519Z,17.55
2023-01-30T06:23:38.875Z,17.87
2023-01-30T06:24:11.062Z,18.60
2023-01-30T06:24:43.096Z,18.37
2023-01-30T06:25:15.480Z,18.92
2023-01-30T06:25:49.236Z,19.20
2023-01-30T06:26:21.311Z,17.77
2023-01-30T06:26:53.409Z,18.58
2023-01-30T06:27:25.358Z,18.48
2023-01-30T06:27:57.587Z,20.15
2023-01-30T06:28:29.666Z,22.87
2023-01-30T06:29:01.582Z,21.95
2023-01-30T06:29:33.512Z,26.27
2023-01-30T06:30:05.726Z,23.35
2023-01-30T06:30:37.645Z,23.40
2023-01-30T06:31:10.040Z,23.65
2023-01-30T06:31:42.041Z,24.75
2023-01-30T06:32:15.029Z,22.37
2023-01-30T06:32:50.895Z,23.73
2023-01-30T06:33:23.260Z,23.77
2023-01-30T06:33:55.122Z,24.17
2023-01-30T06:34:27.000Z,23.98
2023-01-30T06:34:58.945Z,23.90
2023-01-30T06:35:30.857Z,24.45
2023-01-30T06:36:02.887Z,21.83
2023-01-30T06:36:34.947Z,21.02
2023-01-30T06:37:06.835Z,24.10
2023-01-30T06:37:38.756Z,20.42
2023-01-30T06:38:13.404Z,19.73
2023-01-30T06:38:45.773Z,19.90
2023-01-30T06:39:17.735Z,21.65
2023-01-30T06:39:49.629Z,21.17
2023-01-30T06:40:21.725Z,19.95
2023-01-30T06:40:53.620Z,20.75
2023-01-30T06:41:25.477Z,20.00
2023-01-30T06:41:57.358Z,20.17
2023-01-30T06:42:29.240Z,21.02
2023-01-30T06:43:01.318Z,20.92
2023-01-30T06:43:33.300Z,19.27
2023-01-30T06:44:05.692Z,20.15
2023-01-30T06:44:37.637Z,21.15
2023-01-30T06:45:10.015Z,21.70
2023-01-30T06:45:42.273Z,21.15
2023-01-30T06:46:14.396Z,20.80
2023-01-30T06:46:46.281Z,21.73
2023-01-30T06:47:18.143Z,22.50
2023-01-30T06:47:53.309Z,21.05
2023-01-30T06:48:25.183Z,21.95
2023-01-30T06:48:57.276Z,21.75
2023-01-30T06:49:29.464Z,20.15
2023-01-30T06:50:01.477Z,20.25
2023-01-30T06:50:33.929Z,17.77
2023-01-30T06:51:06.036Z,18.70
2023-01-30T06:51:37.924Z,18.65
2023-01-30T06:52:10.098Z,19.08
2023-01-30T06:52:45.984Z,19.17
2023-01-30T06:53:18.165Z,19.65
2023-01-30T06:53:52.395Z,21.12
2023-01-30T06:54:25.045Z,20.55
2023-01-30T06:54:57.511Z,20.75
2023-01-30T06:55:29.547Z,20.45
2023-01-30T06:56:02.111Z,20.08
2023-01-30T06:56:33.991Z,20.58
2023-01-30T06:57:06.000Z,24.23
2023-01-30T06:57:37.943Z,26.15
2023-01-30T06:58:14.627Z,26.50
2023-01-30T06:58:46.560Z,26.75
2023-01-30T06:59:18.465Z,26.50
2023-01-30T06:59:50.330Z,25.60
2023-01-30T07:00:23.235Z,25.58
2023-01-30T07:00:55.358Z,24.30
2023-01-30T07:01:28.925Z,22.73
2023-01-30T07:02:01.184Z,23.17
2023-01-30T07:02:35.356Z,23.65
2023-01-30T07:03:17.168Z,23.75
2023-01-30T07:03:49.052Z,22.48
2023-01-30T07:04:23.685Z,22.50
2023-01-30T07:04:55.601Z,21.92
2023-01-30T07:05:29.005Z,21.67
2023-01-30T07:06:00.929Z,21.27
2023-01-30T07:06:33.283Z,22.33
2023-01-30T07:07:07.098Z,20.55
2023-01-30T07:07:39.601Z,22.08
2023-01-30T07:08:12.875Z,20.77
2023-01-30T07:08:44.779Z,19.80
2023-01-30T07:09:16.784Z,19.50
2023-01-30T07:10:02.170Z,18.73
2023-01-30T07:10:39.139Z,17.40
2023-01-30T07:11:11.098Z,18.23
2023-01-30T07:11:43.049Z,18.37
2023-01-30T07:12:14.943Z,18.77
2023-01-30T07:12:47.802Z,18.52
2023-01-30T07:13:19.798Z,17.15
2023-01-30T07:13:51.995Z,18.35
2023-01-30T07:14:23.899Z,18.50
2023-01-30T07:14:55.788Z,18.35
2023-01-30T07:15:28.088Z,18.87
2023-01-30T07:16:00.263Z,21.37
2023-01-30T07:16:32.301Z,21.87
2023-01-30T07:17:04.441Z,41.25
2023-01-30T07:17:36.445Z,62.92
2023-01-30T07:18:08.766Z,44.38
2023-01-30T07:18:40.954Z,33.85
2023-01-30T07:19:12.871Z,35.22
2023-01-30T07:19:45.518Z,36.45
2023-01-30T07:20:17.653Z,40.60
2023-01-30T07:20:50.469Z,43.83
2023-01-30T07:21:22.923Z,29.33
2023-01-30T07:21:54.826Z,20.58
2023-01-30T07:22:26.792Z,20.35
2023-01-30T07:22:58.817Z,19.08
2023-01-30T07:23:30.732Z,17.55
2023-01-30T07:24:02.593Z,17.73
2023-01-30T07:24:34.472Z,17.42
2023-01-30T07:25:06.937Z,17.60
2023-01-30T07:25:38.831Z,17.10
2023-01-30T07:26:10.748Z,17.48
2023-01-30T07:26:42.990Z,17.65
2023-01-30T07:27:15.030Z,18.48
2023-01-30T07:27:58.854Z,18.67
2023-01-30T07:28:30.747Z,17.23